createdAt,value
2018-05-04T00:00:59.276Z,67.50
2018-05-04T00:03:28.617Z,67.50
2018-05-04T00:05:57.580Z,67.60
2018-05-04T00:08:26.180Z,67.60
2018-05-04T00:10:55.656Z,67.70
2018-05-04T00:13:23.859Z,67.60
2018-05-04T00:15:52.424Z,67.60
2018-05-04T00:18:20.795Z,67.70
2018-05-04T00:20:48.972Z,67.50
2018-05-04T00:23:17.184Z,67.50
2018-05-04T00:25:45.381Z,67.30
2018-05-04T00:28:13.620Z,67.50
2018-05-04T00:30:43.375Z,67.40
2018-05-04T00:33:12.507Z,67.40
2018-05-04T00:35:41.004Z,67.60
2018-05-04T00:38:09.204Z,67.50
2018-05-04T00:40:37.406Z,67.20
2018-05-04T00:43:05.855Z,67.00
2018-05-04T00:45:34.960Z,67.20
2018-05-04T00:48:03.983Z,67.30
2018-05-04T00:50:32.185Z,67.30
2018-05-04T00:53:00.385Z,67.70
2018-05-04T00:55:29.501Z,67.80
2018-05-04T00:57:58.468Z,68.00
2018-05-04T01:00:27.037Z,67.90
2018-05-04T01:02:56.752Z,68.00
2018-05-04T01:05:25.416Z,67.90
2018-05-04T01:07:54.193Z,68.10
2018-05-04T01:10:22.727Z,68.00
2018-05-04T01:12:51.569Z,67.90
2018-05-04T01:15:19.844Z,67.90
2018-05-04T01:17:48.056Z,68.00
2018-05-04T01:20:16.273Z,68.30
2018-05-04T01:22:44.477Z,67.90
2018-05-04T01:25:12.720Z,68.10
2018-05-04T01:27:40.956Z,68.30
2018-05-04T01:30:09.143Z,68.50
2018-05-04T01:32:38.041Z,68.50
2018-05-04T01:35:06.237Z,68.40
2018-05-04T01:37:36.767Z,68.20
2018-05-04T01:40:04.964Z,68.30
2018-05-04T01:42:33.603Z,68.30
2018-05-04T01:45:01.910Z,68.30
2018-05-04T01:47:31.398Z,68.30
2018-05-04T01:50:00.137Z,68.20
2018-05-04T01:52:28.374Z,68.30
2018-05-04T01:55:05.451Z,68.60
2018-05-04T01:57:34.688Z,68.40
2018-05-04T02:00:03.411Z,68.50
2018-05-04T02:02:31.693Z,68.40
2018-05-04T02:05:00.183Z,68.40
2018-05-04T02:07:29.088Z,68.40
2018-05-04T02:09:58.410Z,68.60
2018-05-04T02:12:27.053Z,68.60
2018-05-04T02:14:55.251Z,68.40
2018-05-04T02:17:23.465Z,68.30
2018-05-04T02:19:52.064Z,68.50
2018-05-04T02:22:20.259Z,68.70
2018-05-04T02:24:48.456Z,69.00
2018-05-04T02:27:16.944Z,68.80
2018-05-04T02:29:45.909Z,69.10
2018-05-04T02:32:14.728Z,69.00
2018-05-04T02:34:43.705Z,69.00
2018-05-04T02:37:12.360Z,69.00
2018-05-04T02:39:40.965Z,69.00
2018-05-04T02:42:10.325Z,69.30
2018-05-04T02:44:39.676Z,69.20
2018-05-04T02:47:08.431Z,69.20
2018-05-04T02:49:36.945Z,69.30
2018-05-04T02:52:05.156Z,69.10
2018-05-04T02:54:33.756Z,69.20
2018-05-04T02:57:03.863Z,68.90
2018-05-04T02:59:33.544Z,69.10
2018-05-04T03:02:01.744Z,69.10
2018-05-04T03:04:31.436Z,68.80
2018-05-04T03:06:59.637Z,68.80
2018-05-04T03:09:27.840Z,68.70
2018-05-04T03:11:56.380Z,68.90
2018-05-04T03:14:25.386Z,68.90
2018-05-04T03:16:54.552Z,69.30
2018-05-04T03:19:22.753Z,69.30
2018-05-04T03:21:52.292Z,69.10
2018-05-04T03:24:20.814Z,69.10
2018-05-04T03:26:49.396Z,69.10
2018-05-04T03:29:17.595Z,69.00
2018-05-04T03:31:46.255Z,69.00
2018-05-04T03:34:14.436Z,69.20
2018-05-04T03:36:43.025Z,69.10
2018-05-04T03:39:11.233Z,69.10
2018-05-04T03:41:40.812Z,69.90
2018-05-04T03:44:09.009Z,69.30
2018-05-04T03:46:38.308Z,69.10
2018-05-04T03:49:07.576Z,69.10
2018-05-04T03:51:36.111Z,69.10
2018-05-04T03:54:04.952Z,69.30
2018-05-04T03:56:34.496Z,69.10
2018-05-04T03:59:15.179Z,69.70
2018-05-04T04:01:55.880Z,69.70
2018-05-04T04:04:24.080Z,69.60
2018-05-04T04:06:53.025Z,69.90
2018-05-04T04:09:21.220Z,70.10
2018-05-04T04:11:50.644Z,70.20
2018-05-04T04:14:19.648Z,70.10
2018-05-04T04:16:47.844Z,70.10
2018-05-04T04:19:16.044Z,70.30
2018-05-04T04:21:45.142Z,70.50
2018-05-04T04:24:13.364Z,70.40
2018-05-04T04:26:41.560Z,70.50
2018-05-04T04:29:09.768Z,70.40
2018-05-04T04:31:39.018Z,70.60
2018-05-04T04:34:07.224Z,70.90
2018-05-04T04:36:36.290Z,70.70
2018-05-04T04:39:04.487Z,70.70
2018-05-04T04:41:37.361Z,70.90
2018-05-04T04:44:05.560Z,70.90
2018-05-04T04:46:34.947Z,71.60
2018-05-04T04:49:04.357Z,71.60
2018-05-04T04:51:32.814Z,71.60
2018-05-04T04:54:01.700Z,71.90
2018-05-04T04:56:30.290Z,71.90
2018-05-04T04:58:58.500Z,71.80
2018-05-04T05:01:27.892Z,71.80
2018-05-04T05:03:56.918Z,71.90
2018-05-04T05:06:25.661Z,71.90
2018-05-04T05:08:53.867Z,72.00
2018-05-04T05:11:22.923Z,71.70
2018-05-04T05:13:51.149Z,72.00
2018-05-04T05:16:19.800Z,72.30
2018-05-04T05:18:48.014Z,72.50
2018-05-04T05:21:16.291Z,72.30
2018-05-04T05:23:44.522Z,72.50
2018-05-04T05:26:12.696Z,72.60
2018-05-04T05:28:40.903Z,72.80
2018-05-04T05:31:09.212Z,73.00
2018-05-04T05:33:37.461Z,73.00
2018-05-04T05:36:06.724Z,73.20
2018-05-04T05:38:34.927Z,73.40
2018-05-04T05:41:04.084Z,73.50
2018-05-04T05:43:32.700Z,73.50
2018-05-04T05:46:01.768Z,73.60
2018-05-04T05:48:30.468Z,73.60
2018-05-04T05:50:58.736Z,73.90
2018-05-04T05:53:26.949Z,73.70
2018-05-04T05:55:55.700Z,74.20
2018-05-04T05:58:23.945Z,74.70
2018-05-04T06:00:52.456Z,74.40
2018-05-04T06:03:21.383Z,75.10
2018-05-04T06:05:50.348Z,75.40
2018-05-04T06:08:18.619Z,75.40
2018-05-04T06:10:47.203Z,75.90
2018-05-04T06:13:15.800Z,76.00
2018-05-04T06:15:44.455Z,75.80
2018-05-04T06:18:12.649Z,75.70
2018-05-04T06:20:40.904Z,75.80
2018-05-04T06:23:09.445Z,76.00
2018-05-04T06:25:38.590Z,76.00
2018-05-04T06:28:06.797Z,76.00
2018-05-04T06:30:35.688Z,76.40
2018-05-04T06:33:03.896Z,76.40
2018-05-04T06:35:32.328Z,76.10
2018-05-04T06:38:01.151Z,75.40
2018-05-04T06:40:30.121Z,75.80
2018-05-04T06:42:58.695Z,75.70
2018-05-04T06:45:27.633Z,75.40
2018-05-04T06:47:56.959Z,76.00
2018-05-04T06:50:25.157Z,76.00
2018-05-04T06:52:53.387Z,76.30
2018-05-04T06:55:22.363Z,75.80
2018-05-04T06:57:51.331Z,75.60
2018-05-04T07:00:19.763Z,75.60
2018-05-04T07:02:48.268Z,75.10
2018-05-04T07:05:16.458Z,74.40
2018-05-04T07:07:44.661Z,74.50
2018-05-04T07:10:13.779Z,74.50
2018-05-04T07:12:43.142Z,73.60
2018-05-04T07:15:11.475Z,73.60
2018-05-04T07:17:39.908Z,73.20
2018-05-04T07:20:08.104Z,74.00
2018-05-04T07:22:37.212Z,73.10
2018-05-04T07:25:06.888Z,72.20
2018-05-04T07:27:36.240Z,72.20
2018-05-04T07:30:05.328Z,72.70
2018-05-04T07:32:33.719Z,71.90
2018-05-04T07:35:01.931Z,71.80
2018-05-04T07:37:30.913Z,72.00
2018-05-04T07:39:59.111Z,72.00
2018-05-04T07:42:27.702Z,70.80
2018-05-04T07:44:56.124Z,70.50
2018-05-04T07:47:24.672Z,71.30
2018-05-04T07:49:52.903Z,70.50
2018-05-04T07:52:21.111Z,69.70
2018-05-04T07:54:49.327Z,70.40
2018-05-04T07:57:17.983Z,68.80
2018-05-04T07:59:46.472Z,68.90
2018-05-04T08:02:14.671Z,68.50
2018-05-04T08:04:43.452Z,68.30
2018-05-04T08:07:12.424Z,68.30
2018-05-04T08:09:48.045Z,68.20
2018-05-04T08:12:16.824Z,68.70
2018-05-04T08:14:45.544Z,68.60
2018-05-04T08:17:14.056Z,68.50
2018-05-04T08:19:43.223Z,67.60
2018-05-04T08:22:11.852Z,67.60
2018-05-04T08:24:40.061Z,66.60
2018-05-04T08:27:08.257Z,66.40
2018-05-04T08:29:36.660Z,67.00
2018-05-04T08:32:05.533Z,66.60
2018-05-04T08:34:33.731Z,66.20
2018-05-04T08:37:02.530Z,65.80
2018-05-04T08:39:30.993Z,64.00
2018-05-04T08:41:59.645Z,64.70
2018-05-04T08:44:27.841Z,64.40
2018-05-04T08:47:01.981Z,64.10
2018-05-04T08:49:30.946Z,63.30
2018-05-04T08:51:59.155Z,63.10
2018-05-04T08:54:28.474Z,62.80
2018-05-04T08:56:56.657Z,62.80
2018-05-04T08:59:25.239Z,63.00
2018-05-04T09:02:01.850Z,63.20
2018-05-04T09:04:30.536Z,62.50
2018-05-04T09:06:58.746Z,62.50
2018-05-04T09:09:26.950Z,62.30
2018-05-04T09:11:55.577Z,62.60
2018-05-04T09:14:24.282Z,62.10
2018-05-04T09:16:52.552Z,61.80
2018-05-04T09:19:20.759Z,61.20
2018-05-04T09:21:49.332Z,61.30
2018-05-04T09:24:18.729Z,60.10
2018-05-04T09:26:46.921Z,60.10
2018-05-04T09:29:15.904Z,60.80
2018-05-04T09:31:44.693Z,60.80
2018-05-04T09:34:13.748Z,60.00
2018-05-04T09:36:42.621Z,60.00
2018-05-04T09:39:18.797Z,59.50
2018-05-04T09:41:47.670Z,61.10
2018-05-04T09:44:15.871Z,60.70
2018-05-04T09:46:44.075Z,61.30
2018-05-04T09:49:12.636Z,61.30
2018-05-04T09:51:40.860Z,60.60
2018-05-04T09:54:09.824Z,61.50
2018-05-04T09:56:38.824Z,61.50
2018-05-04T09:59:07.030Z,60.20
2018-05-04T10:01:35.589Z,60.00
2018-05-04T10:04:04.468Z,60.00
2018-05-04T10:06:32.680Z,60.00
2018-05-04T10:09:00.880Z,60.60
2018-05-04T10:11:29.692Z,61.30
2018-05-04T10:13:57.900Z,60.40
2018-05-04T10:16:26.456Z,59.90
2018-05-04T10:18:55.053Z,60.40
2018-05-04T10:21:23.258Z,60.50
2018-05-04T10:23:51.805Z,61.20
2018-05-04T10:26:20.005Z,60.50
2018-05-04T10:28:48.975Z,61.10
2018-05-04T10:31:18.104Z,61.10
2018-05-04T10:33:47.194Z,60.70
2018-05-04T10:36:16.473Z,61.50
2018-05-04T10:38:45.955Z,61.40
2018-05-04T10:41:14.182Z,61.40
2018-05-04T10:43:42.449Z,62.00
2018-05-04T10:46:11.676Z,61.50
2018-05-04T10:48:39.953Z,61.50
2018-05-04T10:51:08.147Z,61.70
2018-05-04T10:53:36.352Z,61.60
2018-05-04T10:56:12.631Z,61.90
2018-05-04T10:58:40.815Z,61.70
2018-05-04T11:01:10.129Z,61.50
2018-05-04T11:03:39.096Z,61.80
2018-05-04T11:06:07.406Z,61.80
2018-05-04T11:08:35.625Z,61.70
2018-05-04T11:11:09.452Z,62.30
2018-05-04T11:13:37.761Z,62.00
2018-05-04T11:16:06.446Z,62.50
2018-05-04T11:18:34.627Z,62.70
2018-05-04T11:21:03.584Z,62.70
2018-05-04T11:23:31.792Z,62.70
2018-05-04T11:26:00.465Z,62.20
2018-05-04T11:28:29.448Z,61.30
2018-05-04T11:30:58.450Z,61.20
2018-05-04T11:33:27.332Z,61.70
2018-05-04T11:35:56.265Z,61.00
2018-05-04T11:38:24.560Z,61.50
2018-05-04T11:40:52.827Z,62.10
2018-05-04T11:43:21.448Z,61.50
2018-05-04T11:45:50.417Z,61.70
2018-05-04T11:48:19.248Z,61.00
2018-05-04T11:50:47.458Z,61.40
2018-05-04T11:53:16.003Z,61.80
2018-05-04T11:55:44.901Z,61.00
2018-05-04T11:58:13.747Z,61.30
2018-05-04T12:00:50.261Z,61.30
2018-05-04T12:03:18.529Z,60.70
2018-05-04T12:05:48.720Z,61.40
2018-05-04T12:08:17.064Z,61.40
2018-05-04T12:10:45.548Z,61.40
2018-05-04T12:13:13.999Z,61.80
2018-05-04T12:15:42.676Z,61.50
2018-05-04T12:18:10.880Z,61.20
2018-05-04T12:20:39.079Z,60.90
2018-05-04T12:23:07.497Z,60.90
2018-05-04T12:25:36.293Z,60.80
2018-05-04T12:28:04.462Z,60.40
2018-05-04T12:30:34.231Z,60.80
2018-05-04T12:33:03.584Z,61.20
2018-05-04T12:35:32.186Z,61.20
2018-05-04T12:38:00.384Z,61.20
2018-05-04T12:40:29.382Z,61.10
2018-05-04T12:42:58.862Z,61.10
2018-05-04T12:45:27.088Z,61.00
2018-05-04T12:47:55.671Z,61.20
2018-05-04T12:50:23.868Z,61.80
2018-05-04T12:52:52.667Z,61.30
2018-05-04T12:55:21.612Z,60.40
2018-05-04T12:57:49.956Z,61.30
2018-05-04T13:00:19.109Z,60.20
2018-05-04T13:02:47.960Z,60.50
2018-05-04T13:05:19.305Z,60.40
2018-05-04T13:07:48.344Z,60.70
2018-05-04T13:10:16.904Z,60.60
2018-05-04T13:12:45.374Z,60.10
2018-05-04T13:15:13.952Z,60.70
2018-05-04T13:17:43.872Z,60.70
2018-05-04T13:20:12.971Z,60.90
2018-05-04T13:22:42.680Z,60.30
2018-05-04T13:25:11.656Z,59.80
2018-05-04T13:27:40.266Z,59.80
2018-05-04T13:30:10.376Z,59.80
2018-05-04T13:32:40.237Z,60.80
2018-05-04T13:35:08.441Z,60.70
2018-05-04T13:37:36.776Z,59.40
2018-05-04T13:40:04.972Z,60.20
2018-05-04T13:42:33.275Z,59.20
2018-05-04T13:45:01.484Z,58.80
2018-05-04T13:47:38.885Z,58.60
2018-05-04T13:50:07.311Z,58.30
2018-05-04T13:52:36.071Z,58.50
2018-05-04T13:55:04.296Z,58.50
2018-05-04T13:57:32.776Z,58.70
2018-05-04T14:00:05.252Z,58.50
2018-05-04T14:02:33.454Z,58.60
2018-05-04T14:05:02.040Z,58.60
2018-05-04T14:07:31.008Z,59.30
2018-05-04T14:09:59.812Z,59.30
2018-05-04T14:12:29.500Z,58.50
2018-05-04T14:14:58.040Z,58.50
2018-05-04T14:17:26.623Z,58.50
2018-05-04T14:19:54.806Z,57.90
2018-05-04T14:22:23.017Z,58.00
2018-05-04T14:24:51.238Z,57.70
2018-05-04T14:27:19.695Z,58.20
2018-05-04T14:29:47.896Z,57.90
2018-05-04T14:32:16.296Z,56.70
2018-05-04T14:34:44.509Z,57.10
2018-05-04T14:37:12.990Z,56.60
2018-05-04T14:39:42.029Z,56.40
2018-05-04T14:42:10.473Z,56.20
2018-05-04T14:44:38.736Z,56.20
2018-05-04T14:47:07.435Z,56.00
2018-05-04T14:49:35.745Z,56.50
2018-05-04T14:52:05.613Z,56.00
2018-05-04T14:54:35.664Z,55.60
2018-05-04T14:57:04.739Z,55.90
2018-05-04T14:59:33.302Z,55.90
2018-05-04T15:02:01.838Z,55.60
2018-05-04T15:04:30.594Z,55.50
2018-05-04T15:06:58.794Z,53.70
2018-05-04T15:09:26.997Z,53.70
2018-05-04T15:11:55.754Z,52.90
2018-05-04T15:14:24.495Z,53.90
2018-05-04T15:16:53.252Z,53.20
2018-05-04T15:19:21.564Z,53.60
2018-05-04T15:21:50.268Z,53.70
2018-05-04T15:24:18.487Z,54.20
2018-05-04T15:26:47.977Z,53.40
2018-05-04T15:29:17.557Z,53.20
2018-05-04T15:31:46.896Z,53.20
2018-05-04T15:34:16.392Z,53.20
2018-05-04T15:36:45.700Z,52.40
2018-05-04T15:39:14.775Z,52.40
2018-05-04T15:41:43.243Z,52.30
2018-05-04T15:44:11.445Z,53.10
2018-05-04T15:46:39.650Z,53.10
2018-05-04T15:49:15.176Z,52.30
2018-05-04T15:51:50.056Z,52.00
2018-05-04T15:54:18.258Z,51.90
2018-05-04T15:56:46.457Z,52.90
2018-05-04T15:59:15.439Z,52.70
2018-05-04T16:01:43.716Z,52.70
2018-05-04T16:04:11.942Z,52.30
2018-05-04T16:06:40.150Z,52.70
2018-05-04T16:09:08.679Z,51.70
2018-05-04T16:11:37.763Z,51.70
2018-05-04T16:14:06.556Z,51.00
2018-05-04T16:16:35.976Z,52.00
2018-05-04T16:19:04.177Z,52.00
2018-05-04T16:21:32.505Z,51.70
2018-05-04T16:24:01.490Z,51.40
2018-05-04T16:26:30.460Z,51.00
2018-05-04T16:28:58.680Z,51.00
2018-05-04T16:31:27.440Z,51.10
2018-05-04T16:33:55.921Z,50.50
2018-05-04T16:36:24.417Z,50.60
2018-05-04T16:38:53.544Z,50.40
2018-05-04T16:41:36.549Z,50.60
2018-05-04T16:44:05.307Z,51.70
2018-05-04T16:46:40.148Z,51.40
2018-05-04T16:49:14.424Z,51.00
2018-05-04T16:51:42.640Z,51.50
2018-05-04T16:54:11.564Z,51.10
2018-05-04T16:56:40.519Z,51.40
2018-05-04T16:59:08.717Z,51.60
2018-05-04T17:01:37.321Z,51.80
2018-05-04T17:04:06.981Z,51.20
2018-05-04T17:06:35.188Z,51.00
2018-05-04T17:09:03.441Z,51.40
2018-05-04T17:11:32.053Z,51.50
2018-05-04T17:14:00.567Z,51.20
2018-05-04T17:16:28.910Z,51.30
2018-05-04T17:18:57.881Z,51.30
2018-05-04T17:21:26.243Z,51.30
2018-05-04T17:23:54.560Z,51.50
2018-05-04T17:26:23.864Z,51.30
2018-05-04T17:28:53.024Z,51.30
2018-05-04T17:31:21.556Z,51.20
2018-05-04T17:33:50.032Z,51.30
2018-05-04T17:36:19.336Z,50.90
2018-05-04T17:38:48.322Z,50.70
2018-05-04T17:41:16.909Z,50.70
2018-05-04T17:43:45.976Z,50.30
2018-05-04T17:46:14.216Z,50.30
2018-05-04T17:48:43.027Z,50.10
2018-05-04T17:51:11.281Z,50.10
2018-05-04T17:53:39.489Z,50.30
2018-05-04T17:56:08.000Z,50.20
2018-05-04T17:58:36.652Z,50.30
2018-05-04T18:01:05.379Z,50.10
2018-05-04T18:03:33.720Z,49.80
2018-05-04T18:06:02.450Z,49.90
2018-05-04T18:08:30.786Z,49.90
2018-05-04T18:10:59.391Z,49.70
2018-05-04T18:13:28.176Z,49.90
2018-05-04T18:15:56.920Z,49.80
2018-05-04T18:18:25.128Z,50.10
2018-05-04T18:20:53.328Z,50.50
2018-05-04T18:23:22.311Z,50.20
2018-05-04T18:25:50.969Z,50.20
2018-05-04T18:28:19.172Z,50.30
2018-05-04T18:30:47.747Z,50.50
2018-05-04T18:33:16.256Z,50.70
2018-05-04T18:35:45.568Z,50.90
2018-05-04T18:38:14.715Z,51.10
2018-05-04T18:40:43.348Z,51.10
2018-05-04T18:43:12.437Z,51.30
2018-05-04T18:45:41.419Z,51.40
2018-05-04T18:48:11.284Z,51.30
2018-05-04T18:50:39.728Z,51.30
2018-05-04T18:53:08.833Z,51.70
2018-05-04T18:55:38.948Z,51.70
2018-05-04T18:58:07.925Z,51.90
2018-05-04T19:00:36.562Z,51.90
2018-05-04T19:03:11.029Z,52.10
2018-05-04T19:05:40.740Z,52.30
2018-05-04T19:08:10.018Z,52.30
2018-05-04T19:10:39.994Z,52.60
2018-05-04T19:13:08.590Z,52.60
2018-05-04T19:15:38.248Z,52.80
2018-05-04T19:18:06.747Z,52.70
2018-05-04T19:20:36.078Z,52.80
2018-05-04T19:23:05.709Z,53.70
2018-05-04T19:25:34.735Z,53.00
2018-05-04T19:28:02.949Z,53.50
2018-05-04T19:30:31.692Z,53.30
2018-05-04T19:33:00.060Z,53.50
2018-05-04T19:35:32.598Z,54.20
2018-05-04T19:38:01.576Z,53.90
2018-05-04T19:40:30.545Z,53.90
2018-05-04T19:42:58.919Z,53.90
2018-05-04T19:45:27.408Z,54.00
2018-05-04T19:47:55.711Z,54.20
2018-05-04T19:50:24.677Z,54.30
2018-05-04T19:52:53.629Z,54.30
2018-05-04T19:55:22.352Z,54.70
2018-05-04T19:57:50.592Z,54.50
2018-05-04T20:00:21.800Z,54.70
2018-05-04T20:02:50.908Z,55.10
2018-05-04T20:05:19.126Z,55.00
2018-05-04T20:07:47.373Z,55.20
2018-05-04T20:10:16.391Z,55.20
2018-05-04T20:12:44.997Z,55.30
2018-05-04T20:15:14.109Z,55.40
2018-05-04T20:17:42.309Z,55.40
2018-05-04T20:20:10.867Z,55.40
2018-05-04T20:22:39.068Z,55.50
2018-05-04T20:25:08.048Z,55.70
2018-05-04T20:27:36.304Z,55.80
2018-05-04T20:30:04.860Z,55.90
2018-05-04T20:32:33.112Z,55.80
2018-05-04T20:35:01.649Z,56.00
2018-05-04T20:37:29.937Z,56.10
2018-05-04T20:39:58.134Z,56.20
2018-05-04T20:42:27.598Z,56.80
2018-05-04T20:44:56.540Z,56.40
2018-05-04T20:47:25.100Z,56.30
2018-05-04T20:49:53.915Z,56.20
2018-05-04T20:52:22.832Z,56.50
2018-05-04T20:54:51.580Z,56.70
2018-05-04T20:57:20.552Z,56.60
2018-05-04T20:59:48.772Z,56.60
2018-05-04T21:02:17.715Z,56.80
2018-05-04T21:04:47.345Z,56.90
2018-05-04T21:07:15.519Z,57.20
2018-05-04T21:09:51.236Z,57.40
2018-05-04T21:12:19.433Z,57.20
2018-05-04T21:14:47.923Z,57.30
2018-05-04T21:17:16.644Z,57.20
2018-05-04T21:19:44.840Z,57.30
2018-05-04T21:22:13.347Z,57.50
2018-05-04T21:24:41.881Z,57.50
2018-05-04T21:27:10.118Z,57.40
2018-05-04T21:29:42.796Z,57.40
2018-05-04T21:32:11.055Z,57.50
2018-05-04T21:34:40.034Z,57.60
2018-05-04T21:37:11.164Z,57.60
2018-05-04T21:39:39.367Z,57.60
2018-05-04T21:42:08.194Z,57.70
2018-05-04T21:44:36.463Z,57.70
2018-05-04T21:47:05.053Z,57.60
2018-05-04T21:49:34.055Z,57.50
2018-05-04T21:52:03.038Z,57.70
2018-05-04T21:54:31.705Z,57.60
2018-05-04T21:56:59.873Z,58.10
2018-05-04T21:59:28.074Z,57.80
2018-05-04T22:01:56.696Z,57.50
2018-05-04T22:04:26.060Z,57.50
2018-05-04T22:06:54.253Z,57.50
2018-05-04T22:09:23.240Z,57.50
2018-05-04T22:11:52.205Z,57.50
2018-05-04T22:14:24.378Z,57.40
2018-05-04T22:16:57.281Z,57.70
2018-05-04T22:19:25.513Z,57.60
2018-05-04T22:22:01.146Z,57.80
2018-05-04T22:24:35.197Z,57.70
2018-05-04T22:27:03.398Z,57.70
2018-05-04T22:29:32.368Z,57.70
2018-05-04T22:32:00.576Z,57.80
2018-05-04T22:34:29.541Z,57.70
2018-05-04T22:36:58.120Z,57.70
2018-05-04T22:39:26.286Z,57.50
2018-05-04T22:41:54.822Z,57.60
2018-05-04T22:44:23.024Z,57.90
2018-05-04T22:46:52.127Z,58.00
2018-05-04T22:49:20.755Z,58.00
2018-05-04T22:51:48.954Z,57.90
2018-05-04T22:54:17.920Z,58.10
2018-05-04T22:56:46.625Z,58.10
2018-05-04T22:59:15.600Z,58.30
2018-05-04T23:01:49.623Z,58.20
2018-05-04T23:04:17.828Z,58.40
2018-05-04T23:06:46.032Z,58.30
2018-05-04T23:09:14.244Z,58.30
2018-05-04T23:14:22.875Z,58.40
2018-05-04T23:16:51.072Z,58.50
2018-05-04T23:19:19.272Z,59.00
2018-05-04T23:21:47.493Z,58.60
2018-05-04T23:24:16.728Z,58.60
2018-05-04T23:26:45.696Z,58.80
2018-05-04T23:29:13.959Z,58.80
2018-05-04T23:31:42.188Z,58.80
2018-05-04T23:34:11.045Z,58.80
2018-05-04T23:36:39.524Z,59.00
2018-05-04T23:39:07.720Z,59.00
2018-05-04T23:41:48.441Z,58.50
2018-05-04T23:44:16.637Z,58.40
2018-05-04T23:46:44.840Z,58.50
2018-05-04T23:49:13.861Z,58.50
2018-05-04T23:51:42.080Z,58.40
2018-05-04T23:54:10.284Z,58.60
2018-05-04T23:56:39.368Z,58.70
2018-05-04T23:59:07.829Z,58.70
